Thursday, January 17, 2019, 5:59 AM EST
Back to Local

KMMU, Morristown Municipal

Location: Morristown, NJ, United States Lat: 40.8
Local Time: 5:59 AM EST (10:59 GMT) Lon: -74.417
Time Zone: US/Eastern Elev: 187 ft

Show me the last for .
Show Decoded

2019-01-17 05:35 METAR KMMU 171035Z AUTO 00000KT 10SM CLR M05/M13 A3034 RMK AO2 =
2019-01-17 05:15 METAR KMMU 171015Z AUTO 33006KT 10SM CLR M04/M13 A3034 RMK AO2 =
2019-01-17 04:55 METAR KMMU 170955Z AUTO 32003KT 10SM CLR M04/M13 A3033 RMK AO2 =
2019-01-17 04:35 METAR KMMU 170935Z AUTO 35009KT 10SM CLR M04/M13 A3032 RMK AO2 =
2019-01-17 04:10 METAR KMMU 170910Z AUTO 35003KT 10SM CLR M04/M14 A3032 RMK AO2 =
2019-01-17 03:55 METAR KMMU 170855Z AUTO 33007KT 10SM CLR M04/M14 A3031 RMK AO2 =
2019-01-17 03:35 METAR KMMU 170835Z AUTO 32009KT 10SM CLR M04/M14 A3032 RMK AO2 =
2019-01-17 03:15 METAR KMMU 170815Z AUTO 32006KT 10SM CLR M04/M15 A3031 RMK AO2 =
2019-01-17 02:55 METAR KMMU 170755Z AUTO 33006KT 10SM CLR M03/M16 A3031 RMK AO2 =
2019-01-17 02:35 METAR KMMU 170735Z AUTO 34010G16KT 10SM CLR M03/M17 A3029 RMK AO2 =
2019-01-17 02:15 METAR KMMU 170715Z AUTO 31008G15KT 10SM CLR M03/M14 A3030 RMK AO2 =
2019-01-17 01:55 METAR KMMU 170655Z AUTO 32007KT 280V340 10SM CLR M02/M12 A3029 RMK AO2 =
2019-01-17 01:35 METAR KMMU 170635Z AUTO 34011G17KT 10SM CLR M02/M11 A3027 RMK AO2 =
2019-01-17 01:15 METAR KMMU 170615Z AUTO 35007G15KT 10SM CLR M02/M10 A3027 RMK AO2 =
2019-01-17 00:55 METAR KMMU 170555Z AUTO 34010KT 10SM CLR M01/M09 A3027 RMK AO2 =
2019-01-17 00:35 METAR KMMU 170535Z AUTO 34008KT 10SM CLR M01/M09 A3026 RMK AO2 =
2019-01-17 00:15 METAR KMMU 170515Z AUTO 33008KT 10SM CLR M00/M09 A3025 RMK AO2 =
2019-01-16 23:55 METAR KMMU 170455Z AUTO 35007G15KT 10SM CLR 00/M08 A3025 RMK AO2 =
2019-01-16 23:35 METAR KMMU 170435Z AUTO 31004KT 10SM CLR 00/M09 A3023 RMK AO2 =
2019-01-16 23:15 METAR KMMU 170415Z AUTO 32004KT 10SM CLR 01/M09 A3023 RMK AO2 =
2019-01-16 22:55 METAR KMMU 170355Z AUTO 33006KT 10SM CLR 01/M08 A3022 RMK AO2 =
2019-01-16 22:35 METAR KMMU 170335Z AUTO 33009KT 10SM SCT047 01/M08 A3021 RMK AO2 =
2019-01-16 22:15 METAR KMMU 170315Z AUTO 34007KT 10SM SCT047 SCT055 02/M07 A3020 RMK AO2 =
2019-01-16 21:56 METAR KMMU 170256Z 35012G16KT 10SM BKN047 02/M06 A3020 =
2019-01-16 21:55 METAR KMMU 170255Z 35012G16KT 10SM BKN047 02/M06 A3020 =
2019-01-16 20:45 METAR KMMU 170145Z 27003KT 10SM BKN047 BKN050 03/M05 A3015 =
2019-01-16 19:45 METAR KMMU 170045Z 26005KT 10SM OVC050 03/M05 A3013 =
2019-01-16 18:45 METAR KMMU 162345Z 27007KT 10SM OVC050 03/M05 A3012 =
2019-01-16 17:45 METAR KMMU 162245Z 27006KT 10SM OVC050 03/M05 A3010 =
2019-01-16 16:45 METAR KMMU 162145Z 28007G12KT 10SM OVC048 03/M05 A3008 =
2019-01-16 15:45 METAR KMMU 162045Z 28008G12KT 10SM OVC043 03/M05 A3006 =
2019-01-16 14:50 METAR KMMU 161950Z 30006G14KT 10SM OVC043 03/M04 A3005 =
2019-01-16 13:50 METAR KMMU 161850Z 27010KT 10SM OVC039 03/M04 A3005 =
2019-01-16 12:45 METAR KMMU 161745Z 26007G14KT 10SM OVC033 02/M04 A3005 =
2019-01-16 11:45 METAR KMMU 161645Z 27009KT 10SM OVC031 02/M04 A3007 =
2019-01-16 10:45 METAR KMMU 161545Z 25007G11KT 10SM BKN032 01/M04 A3008 =
2019-01-16 09:55 METAR KMMU 161455Z 28006KT 7SM BR OVC029 00/M04 A3009 =
2019-01-16 08:45 METAR KMMU 161345Z 22004KT 7SM BR OVC027 M02/M04 A3006 =
2019-01-16 07:45 METAR KMMU 161245Z 20005KT 7SM OVC027 M03/M05 A3005 =
2019-01-16 06:45 METAR KMMU 161145Z 00000KT 10SM OVC029 M06/M06 A3005 =
2019-01-16 06:35 METAR KMMU 161135Z AUTO 00000KT 10SM OVC029 M06/M07 A3004 RMK AO2 =
2019-01-16 06:15 METAR KMMU 161115Z AUTO 00000KT 10SM BKN029 M08/M09 A3004 RMK AO2 =

Support USWX by starting your Amazon purchase here.